Archival Weather

Chicago O'Hare International

Chicago, Illinois (KORD)

Report from: Saturday, November 5, 2022 9:51 PM CDT
Current time: Saturday, March 2, 2024 4:48 AM CST

Current weather – Weather history – Daily summaries
Weather forecast

Temperature7.8°C (46.0°F)
Wind chill4.4°C (39.9°F)
Dew point3.3°C (37.9°F)
Winds 12 kts (6.2 m/s, 13.8 mph) South-Southwest (210°)
Wind gusts 23 kts (11.8 m/s, 26.5 mph)
Visibility10 mi. (16.1 km)
Clouds Scattered clouds 24,000 ft. (7,315 m)
Altimeter29.74 in.Hg (1007 mB)
Relative humidity73 %
Density altitude-534 ft. (-163 m)
Sea-level pressure100.7 kPa (1007 mB, 29.73 in.Hg)
Remarks Automated weather observing station with precipitation discriminator
Pressure rising
Flight conditions Visual Meteorological Conditions
Raw dataKORD 060251Z 21012G23KT 10SM SCT240 08/03 A2974 RMK AO2 SLP069 T00780033 52037
An error has occurred. This application may no longer respond until reloaded. Reload 🗙